createdAt,value
2023-04-23T00:00:41.466Z,65.6
2023-04-23T00:06:20.519Z,65.5
2023-04-23T00:12:12.156Z,65.4
2023-04-23T00:18:04.152Z,65.4
2023-04-23T00:23:55.031Z,65.3
2023-04-23T00:29:45.793Z,65.3
2023-04-23T00:35:37.582Z,65.3
2023-04-23T00:41:13.527Z,65.2
2023-04-23T00:47:05.165Z,65.1
2023-04-23T00:52:57.109Z,65.1
2023-04-23T00:58:48.128Z,65
2023-04-23T01:04:40.407Z,64.9
2023-04-23T01:10:31.919Z,64.9
2023-04-23T01:16:23.240Z,64.9
2023-04-23T01:21:58.951Z,64.8
2023-04-23T01:27:50.336Z,64.8
2023-04-23T01:33:42.240Z,64.6
2023-04-23T01:39:33.666Z,64.6
2023-04-23T01:45:25.271Z,64.6
2023-04-23T01:51:19.762Z,64.5
2023-04-23T01:57:10.154Z,64.5
2023-04-23T02:02:46.558Z,64.4
2023-04-23T02:08:39.509Z,64.4
2023-04-23T02:14:30.712Z,64.3
2023-04-23T02:20:23.305Z,64.3
2023-04-23T02:26:15.230Z,64.2
2023-04-23T02:32:06.834Z,64.1
2023-04-23T02:37:58.576Z,64.1
2023-04-23T02:43:49.776Z,64.1
2023-04-23T02:49:41.365Z,63.9
2023-04-23T02:55:32.862Z,63.9
2023-04-23T03:01:24.747Z,63.9
2023-04-23T03:07:17.762Z,63.8
2023-04-23T03:12:53.607Z,63.8
2023-04-23T03:18:45.835Z,63.7
2023-04-23T03:24:36.764Z,63.7
2023-04-23T03:30:29.930Z,63.6
2023-04-23T03:36:22.266Z,63.6
2023-04-23T03:42:13.173Z,63.5
2023-04-23T03:47:49.584Z,63.4
2023-04-23T03:53:26.228Z,63.4
2023-04-23T03:59:01.508Z,63.4
2023-04-23T04:04:55.530Z,63.3
2023-04-23T04:10:48.104Z,63.3
2023-04-23T04:16:39.515Z,63.2
2023-04-23T04:22:32.791Z,63.1
2023-04-23T04:28:23.960Z,63.1
2023-04-23T04:34:15.266Z,63
2023-04-23T04:40:07.184Z,63
2023-04-23T04:45:58.776Z,62.9
2023-04-23T04:51:50.698Z,62.9
2023-04-23T04:57:41.792Z,62.8
2023-04-23T05:03:18.844Z,62.8
2023-04-23T05:09:10.843Z,62.7
2023-04-23T05:15:04.409Z,62.7
2023-04-23T05:20:56.200Z,62.6
2023-04-23T05:26:47.876Z,62.6
2023-04-23T05:32:39.759Z,62.5
2023-04-23T05:38:37.616Z,62.5
2023-04-23T05:44:30.570Z,62.4
2023-04-23T05:50:23.239Z,62.4
2023-04-23T05:56:16.562Z,62.3
2023-04-23T06:02:07.674Z,62.3
2023-04-23T06:07:48.820Z,62.2
2023-04-23T06:13:43.878Z,62.2
2023-04-23T06:19:35.508Z,62.1
2023-04-23T06:25:26.844Z,62.1
2023-04-23T06:31:18.654Z,62
2023-04-23T06:37:21.062Z,61.9
2023-04-23T06:43:12.886Z,61.9
2023-04-23T06:49:04.896Z,61.9
2023-04-23T06:54:56.980Z,61.8
2023-04-23T07:00:49.798Z,61.8
2023-04-23T07:06:42.902Z,61.7
2023-04-23T07:12:33.981Z,61.6
2023-04-23T07:18:25.882Z,61.6
2023-04-23T07:24:17.113Z,61.6
2023-04-23T07:30:07.747Z,61.5
2023-04-23T07:36:00.314Z,61.4
2023-04-23T07:41:53.994Z,61.4
2023-04-23T07:47:45.705Z,61.4
2023-04-23T07:53:22.813Z,61.3
2023-04-23T07:59:16.629Z,61.3
2023-04-23T08:05:11.205Z,61.2
2023-04-23T08:11:03.195Z,61.2
2023-04-23T08:16:55.609Z,61.1
2023-04-23T08:23:01.810Z,61.1
2023-04-23T08:28:37.823Z,61
2023-04-23T08:34:46.356Z,61
2023-04-23T08:40:34.071Z,60.9
2023-04-23T08:46:11.382Z,60.9
2023-04-23T08:51:46.889Z,60.9
2023-04-23T08:57:23.346Z,60.8
2023-04-23T09:03:15.726Z,60.8
2023-04-23T09:08:53.752Z,60.7
2023-04-23T09:14:47.032Z,60.7
2023-04-23T09:20:37.939Z,60.9
2023-04-23T09:26:14.396Z,61
2023-04-23T09:31:50.346Z,61.1
2023-04-23T09:37:42.599Z,61.4
2023-04-23T09:43:19.051Z,61.7
2023-04-23T09:48:55.759Z,62.1
2023-04-23T09:54:47.909Z,62.4
2023-04-23T10:01:03.190Z,62.6
2023-04-23T10:07:53.455Z,62.6
2023-04-23T10:14:34.153Z,62.6
2023-04-23T10:20:31.091Z,62.6
2023-04-23T10:26:48.709Z,62.6
2023-04-23T10:32:57.135Z,62.5
2023-04-23T10:39:34.631Z,62.5
2023-04-23T10:45:36.747Z,62.5
2023-04-23T10:51:59.135Z,62.4
2023-04-23T10:57:49.579Z,62.4
2023-04-23T11:03:43.878Z,62.4
2023-04-23T11:09:44.512Z,62.4
2023-04-23T11:15:38.413Z,62.4
2023-04-23T11:21:16.857Z,62.3
2023-04-23T11:27:07.946Z,62.3
2023-04-23T11:33:09.516Z,62.3
2023-04-23T11:39:01.399Z,62.3
2023-04-23T11:44:37.632Z,62.3
2023-04-23T11:49:44.423Z,62.2
2023-04-23T11:55:36.529Z,62.2
2023-04-23T12:01:29.327Z,62.1
2023-04-23T12:07:32.389Z,62.1
2023-04-23T12:13:22.958Z,62.1
2023-04-23T12:19:01.163Z,62
2023-04-23T12:24:52.997Z,62
2023-04-23T12:30:45.153Z,61.9
2023-04-23T12:36:37.242Z,61.9
2023-04-23T12:42:28.501Z,61.9
2023-04-23T12:48:20.528Z,61.9
2023-04-23T12:54:12.143Z,61.8
2023-04-23T13:00:04.149Z,61.8
2023-04-23T13:05:58.903Z,61.8
2023-04-23T13:11:34.998Z,61.7
2023-04-23T13:17:27.079Z,61.6
2023-04-23T13:23:21.626Z,61.6
2023-04-23T13:29:13.349Z,61.6
2023-04-23T13:34:34.164Z,61.5
2023-04-23T13:40:27.507Z,61.5
2023-04-23T13:46:32.080Z,61.4
2023-04-23T13:52:40.173Z,61.4
2023-04-23T13:58:16.864Z,61.3
2023-04-23T14:04:22.368Z,61.3
2023-04-23T14:09:59.818Z,61.3
2023-04-23T14:15:35.919Z,61.2
2023-04-23T14:21:15.733Z,61.2
2023-04-23T14:27:22.309Z,61.1
2023-04-23T14:33:14.344Z,61.1
2023-04-23T14:39:20.999Z,61
2023-04-23T14:45:24.354Z,61
2023-04-23T14:51:00.740Z,60.9
2023-04-23T14:56:52.186Z,60.9
2023-04-23T15:02:46.339Z,60.9
2023-04-23T15:08:39.037Z,60.8
2023-04-23T15:14:30.683Z,60.8
2023-04-23T15:20:34.216Z,60.8
2023-04-23T15:26:25.935Z,60.7
2023-04-23T15:32:02.657Z,60.6
2023-04-23T15:37:55.728Z,60.6
2023-04-23T15:43:46.874Z,60.6
2023-04-23T15:49:38.796Z,60.5
2023-04-23T15:55:30.821Z,60.4
2023-04-23T16:01:24.845Z,60.4
2023-04-23T16:07:34.873Z,60.4
2023-04-23T16:13:27.209Z,60.3
2023-04-23T16:19:19.624Z,60.3
2023-04-23T16:25:12.045Z,60.3
2023-04-23T16:31:23.894Z,60.2
2023-04-23T16:37:16.117Z,60.1
2023-04-23T16:43:07.485Z,60.1
2023-04-23T16:49:00.956Z,60.1
2023-04-23T16:54:53.920Z,60
2023-04-23T17:00:47.061Z,60
2023-04-23T17:06:41.996Z,59.9
2023-04-23T17:12:35.468Z,59.9
2023-04-23T17:18:12.978Z,59.8
2023-04-23T17:23:50.059Z,59.8
2023-04-23T17:29:42.908Z,59.8
2023-04-23T17:35:43.560Z,59.7
2023-04-23T17:41:36.684Z,59.6
2023-04-23T17:47:29.913Z,59.6
2023-04-23T17:53:25.782Z,59.6
2023-04-23T17:59:08.709Z,59.5
2023-04-23T18:05:06.701Z,59.4
2023-04-23T18:10:45.534Z,59.4
2023-04-23T18:16:23.747Z,59.4
2023-04-23T18:22:03.715Z,59.3
2023-04-23T18:27:26.356Z,59.3
2023-04-23T18:33:16.993Z,59.3
2023-04-23T18:38:55.746Z,59.2
2023-04-23T18:45:27.155Z,59
2023-04-23T18:51:05.912Z,58.6
2023-04-23T18:56:47.062Z,58.5
2023-04-23T19:02:51.829Z,58.4
2023-04-23T19:09:01.054Z,58.4
2023-04-23T19:14:23.428Z,58.3
2023-04-23T19:20:17.089Z,58.3
2023-04-23T19:25:55.189Z,58.2
2023-04-23T19:31:48.725Z,58.1
2023-04-23T19:37:26.661Z,58.1
2023-04-23T19:43:04.704Z,58
2023-04-23T19:54:22.275Z,57.7
2023-04-23T20:00:16.264Z,57.6
2023-04-23T20:05:55.121Z,57.6
2023-04-23T20:11:32.202Z,57.5
2023-04-23T20:17:12.251Z,57.4
2023-04-23T20:22:35.292Z,57.4
2023-04-23T20:28:12.690Z,57.3
2023-04-23T20:33:49.785Z,57.3
2023-04-23T20:39:26.488Z,57.3
2023-04-23T20:45:18.257Z,57.2
2023-04-23T20:50:54.759Z,57.1
2023-04-23T20:56:30.634Z,57.1
2023-04-23T21:02:22.584Z,57
2023-04-23T21:08:16.122Z,56.9
2023-04-23T21:14:07.468Z,56.9
2023-04-23T21:19:59.917Z,56.8
2023-04-23T21:25:50.932Z,56.8
2023-04-23T21:31:44.611Z,56.7
2023-04-23T21:37:21.085Z,56.6
2023-04-23T21:43:12.550Z,56.6
2023-04-23T21:49:04.859Z,56.5
2023-04-23T21:54:56.670Z,56.4
2023-04-23T22:01:04.611Z,56.4
2023-04-23T22:07:16.788Z,56.3
2023-04-23T22:13:22.769Z,56.3
2023-04-23T22:19:27.328Z,56.3
2023-04-23T22:25:18.382Z,56.2
2023-04-23T22:30:53.680Z,56.1
2023-04-23T22:36:45.944Z,56.1
2023-04-23T22:42:39.305Z,56
2023-04-23T22:48:15.272Z,55.9
2023-04-23T22:53:53.157Z,55.9
2023-04-23T22:59:13.485Z,55.9
2023-04-23T23:04:50.562Z,55.8
2023-04-23T23:10:11.041Z,55.8
2023-04-23T23:16:02.337Z,55.7
2023-04-23T23:21:38.510Z,55.6
2023-04-23T23:27:29.602Z,55.6
2023-04-23T23:33:21.215Z,55.6
2023-04-23T23:39:12.381Z,55.5
2023-04-23T23:45:06.240Z,55.4
2023-04-23T23:50:43.223Z,55.4
2023-04-23T23:56:19.220Z,55.4
